createdAt,value
2023-03-18T00:00:43.657Z,13.00
2023-03-18T00:03:11.653Z,13.60
2023-03-18T00:05:39.456Z,13.40
2023-03-18T00:08:06.852Z,13.20
2023-03-18T00:10:35.172Z,14.00
2023-03-18T00:13:04.449Z,12.70
2023-03-18T00:15:31.584Z,13.30
2023-03-18T00:17:59.839Z,15.63
2023-03-18T00:20:38.545Z,16.33
2023-03-18T00:23:08.637Z,17.88
2023-03-18T00:25:36.788Z,16.65
2023-03-18T00:28:06.562Z,17.08
2023-03-18T00:30:34.851Z,17.40
2023-03-18T00:33:01.760Z,18.27
2023-03-18T00:35:30.604Z,18.77
2023-03-18T00:37:58.711Z,20.25
2023-03-18T00:40:43.082Z,22.30
2023-03-18T00:43:12.845Z,20.45
2023-03-18T00:45:41.043Z,24.67
2023-03-18T00:48:08.981Z,21.83
2023-03-18T00:50:36.903Z,20.05
2023-03-18T00:53:04.001Z,17.42
2023-03-18T00:55:30.720Z,17.77
2023-03-18T00:57:57.972Z,18.77
2023-03-18T01:00:26.276Z,17.70
2023-03-18T01:02:53.628Z,15.57
2023-03-18T01:05:20.812Z,15.93
2023-03-18T01:07:47.806Z,15.77
2023-03-18T01:10:16.037Z,15.98
2023-03-18T01:12:46.733Z,18.23
2023-03-18T01:15:16.860Z,15.65
2023-03-18T01:17:44.392Z,16.63
2023-03-18T01:20:13.737Z,17.48
2023-03-18T01:22:43.270Z,15.40
2023-03-18T01:25:11.735Z,17.35
2023-03-18T01:27:38.663Z,13.38
2023-03-18T01:30:06.681Z,13.65
2023-03-18T01:32:34.386Z,16.17
2023-03-18T01:35:01.193Z,16.45
2023-03-18T01:37:29.038Z,13.13
2023-03-18T01:39:55.969Z,12.95
2023-03-18T01:42:22.998Z,14.73
2023-03-18T01:44:50.775Z,14.40
2023-03-18T01:47:18.690Z,14.50
2023-03-18T01:49:49.248Z,14.80
2023-03-18T01:52:27.189Z,13.77
2023-03-18T01:55:14.040Z,14.18
2023-03-18T01:57:42.457Z,12.80
2023-03-18T02:00:11.408Z,13.95
2023-03-18T02:02:40.323Z,12.82
2023-03-18T02:05:11.351Z,11.82
2023-03-18T02:07:41.076Z,13.10
2023-03-18T02:10:15.765Z,14.30
2023-03-18T02:12:46.327Z,12.68
2023-03-18T02:15:21.427Z,11.38
2023-03-18T02:17:57.054Z,9.20
2023-03-18T02:20:42.690Z,13.13
2023-03-18T02:23:17.684Z,11.32
2023-03-18T02:26:37.162Z,10.43
2023-03-18T02:29:07.048Z,9.43
2023-03-18T02:31:36.977Z,9.52
2023-03-18T02:34:07.343Z,8.50
2023-03-18T02:36:36.764Z,8.60
2023-03-18T02:39:04.079Z,10.00
2023-03-18T02:41:33.708Z,11.23
2023-03-18T02:44:00.742Z,8.95
2023-03-18T02:46:47.521Z,10.93
2023-03-18T02:49:15.401Z,9.95
2023-03-18T02:51:42.054Z,9.73
2023-03-18T02:54:12.816Z,12.35
2023-03-18T02:56:41.231Z,11.05
2023-03-18T02:59:08.537Z,11.45
2023-03-18T03:01:36.858Z,8.45
2023-03-18T03:04:05.237Z,9.95
2023-03-18T03:06:32.105Z,13.60
2023-03-18T03:09:00.549Z,9.70
2023-03-18T03:11:28.507Z,8.68
2023-03-18T03:13:55.244Z,11.93
2023-03-18T03:16:21.941Z,9.38
2023-03-18T03:18:48.642Z,9.10
2023-03-18T03:21:16.163Z,9.90
2023-03-18T03:23:44.668Z,9.45
2023-03-18T03:26:11.774Z,8.40
2023-03-18T03:28:38.468Z,8.27
2023-03-18T03:31:06.847Z,7.47
2023-03-18T03:33:33.537Z,9.07
2023-03-18T03:36:00.340Z,9.27
2023-03-18T03:38:27.049Z,8.80
2023-03-18T03:40:54.269Z,7.57
2023-03-18T03:43:21.235Z,7.47
2023-03-18T03:45:48.110Z,9.07
2023-03-18T03:48:14.803Z,10.15
2023-03-18T03:50:42.026Z,11.00
2023-03-18T03:53:10.266Z,9.50
2023-03-18T03:55:36.940Z,10.05
2023-03-18T03:58:04.781Z,10.77
2023-03-18T04:00:33.222Z,9.73
2023-03-18T04:03:00.350Z,11.68
2023-03-18T04:05:27.362Z,8.60
2023-03-18T04:07:55.346Z,9.85
2023-03-18T04:10:22.719Z,10.10
2023-03-18T04:12:50.456Z,8.60
2023-03-18T04:15:19.864Z,10.10
2023-03-18T04:17:47.217Z,10.02
2023-03-18T04:20:15.146Z,11.75
2023-03-18T04:22:42.224Z,11.93
2023-03-18T04:25:11.085Z,12.57
2023-03-18T04:27:38.743Z,11.65
2023-03-18T04:30:08.201Z,15.45
2023-03-18T04:32:35.254Z,9.88
2023-03-18T04:35:02.276Z,9.02
2023-03-18T04:37:29.148Z,11.68
2023-03-18T04:39:56.228Z,10.68
2023-03-18T04:42:22.885Z,10.35
2023-03-18T04:44:49.632Z,10.20
2023-03-18T04:47:16.330Z,11.45
2023-03-18T04:49:43.188Z,10.73
2023-03-18T04:52:09.933Z,11.95
2023-03-18T04:54:37.455Z,9.48
2023-03-18T04:57:06.686Z,9.35
2023-03-18T04:59:33.564Z,8.98
2023-03-18T05:02:00.399Z,11.55
2023-03-18T05:04:27.567Z,10.75
2023-03-18T05:06:54.506Z,9.52
2023-03-18T05:09:21.273Z,9.18
2023-03-18T05:11:47.952Z,11.02
2023-03-18T05:14:15.510Z,10.50
2023-03-18T05:16:43.317Z,13.18
2023-03-18T05:19:11.044Z,11.43
2023-03-18T05:21:38.112Z,12.35
2023-03-18T05:24:05.455Z,12.02
2023-03-18T05:26:32.107Z,10.50
2023-03-18T05:28:59.455Z,10.63
2023-03-18T05:31:26.211Z,9.57
2023-03-18T05:33:53.034Z,13.20
2023-03-18T05:36:19.741Z,11.65
2023-03-18T05:38:46.682Z,11.77
2023-03-18T05:41:13.896Z,10.52
2023-03-18T05:43:40.715Z,8.50
2023-03-18T05:46:07.521Z,8.55
2023-03-18T05:48:34.340Z,8.68
2023-03-18T05:51:01.119Z,7.63
2023-03-18T05:53:27.888Z,10.98
2023-03-18T05:55:54.587Z,7.85
2023-03-18T05:58:21.304Z,9.23
2023-03-18T06:00:47.987Z,10.05
2023-03-18T06:03:15.093Z,7.68
2023-03-18T06:05:42.093Z,8.98
2023-03-18T06:08:08.834Z,9.25
2023-03-18T06:10:35.730Z,10.27
2023-03-18T06:13:02.487Z,8.27
2023-03-18T06:15:30.529Z,8.18
2023-03-18T06:17:57.551Z,10.73
2023-03-18T06:20:25.010Z,9.07
2023-03-18T06:22:51.880Z,8.55
2023-03-18T06:25:20.657Z,8.32
2023-03-18T06:27:48.107Z,10.98
2023-03-18T06:30:16.147Z,10.45
2023-03-18T06:32:43.409Z,7.60
2023-03-18T06:35:11.759Z,8.95
2023-03-18T06:37:39.288Z,7.20
2023-03-18T06:40:07.446Z,9.25
2023-03-18T06:42:34.622Z,11.30
2023-03-18T06:45:01.491Z,12.73
2023-03-18T06:47:28.671Z,12.93
2023-03-18T06:49:56.764Z,9.40
2023-03-18T06:52:24.036Z,11.43
2023-03-18T06:54:50.841Z,12.07
2023-03-18T06:57:17.932Z,11.43
2023-03-18T06:59:45.608Z,12.65
2023-03-18T07:02:12.829Z,11.45
2023-03-18T07:04:40.133Z,11.63
2023-03-18T07:07:07.198Z,14.40
2023-03-18T07:09:33.970Z,12.25
2023-03-18T07:12:01.230Z,12.18
2023-03-18T07:14:28.639Z,13.85
2023-03-18T07:16:56.508Z,13.27
2023-03-18T07:19:23.902Z,15.18
2023-03-18T07:21:51.115Z,15.85
2023-03-18T07:24:21.224Z,15.88
2023-03-18T07:26:50.244Z,16.70
2023-03-18T07:29:17.593Z,18.02
2023-03-18T07:31:44.484Z,17.70
2023-03-18T07:34:12.863Z,19.15
2023-03-18T07:36:39.615Z,20.08
2023-03-18T07:39:07.847Z,15.73
2023-03-18T07:41:37.278Z,15.82
2023-03-18T07:44:06.827Z,18.23
2023-03-18T07:46:33.932Z,18.58
2023-03-18T07:49:01.070Z,17.27
2023-03-18T07:51:28.061Z,16.45
2023-03-18T07:53:55.233Z,16.33
2023-03-18T07:56:21.922Z,14.95
2023-03-18T07:58:48.712Z,15.10
2023-03-18T08:01:19.625Z,14.20
2023-03-18T08:03:47.034Z,14.07
2023-03-18T08:06:15.429Z,13.27
2023-03-18T08:08:42.889Z,13.55
2023-03-18T08:11:10.705Z,12.35
2023-03-18T08:13:38.769Z,12.90
2023-03-18T08:16:06.030Z,17.58
2023-03-18T08:18:32.965Z,12.07
2023-03-18T08:20:59.674Z,16.67
2023-03-18T08:23:26.440Z,11.80
2023-03-18T08:25:53.286Z,11.45
2023-03-18T08:28:20.559Z,10.93
2023-03-18T08:30:47.393Z,11.73
2023-03-18T08:33:14.758Z,13.07
2023-03-18T08:35:42.727Z,9.35
2023-03-18T08:38:09.916Z,13.15
2023-03-18T08:40:36.778Z,11.00
2023-03-18T08:43:03.577Z,13.38
2023-03-18T08:45:30.579Z,9.45
2023-03-18T08:47:57.458Z,12.90
2023-03-18T08:50:28.460Z,9.93
2023-03-18T08:53:00.158Z,13.38
2023-03-18T08:55:32.858Z,12.43
2023-03-18T08:58:00.380Z,9.02
2023-03-18T09:00:27.618Z,10.15
2023-03-18T09:02:54.658Z,9.93
2023-03-18T09:05:21.783Z,10.93
2023-03-18T09:07:48.975Z,9.10
2023-03-18T09:10:17.787Z,9.27
2023-03-18T09:12:45.334Z,10.32
2023-03-18T09:15:14.914Z,9.05
2023-03-18T09:18:00.081Z,8.48
2023-03-18T09:20:29.311Z,10.63
2023-03-18T09:22:56.154Z,8.82
2023-03-18T09:25:22.906Z,8.77
2023-03-18T09:27:49.666Z,8.65
2023-03-18T09:30:16.430Z,4.82
2023-03-18T09:32:43.454Z,7.50
2023-03-18T09:35:13.016Z,8.63
2023-03-18T09:37:40.580Z,7.10
2023-03-18T09:40:08.233Z,6.28
2023-03-18T09:42:59.963Z,6.03
2023-03-18T09:45:47.565Z,11.30
2023-03-18T09:48:23.177Z,6.35
2023-03-18T09:51:14.851Z,3.83
2023-03-18T09:54:07.764Z,7.22
2023-03-18T09:56:36.702Z,7.10
2023-03-18T09:59:18.399Z,4.32
2023-03-18T10:01:47.353Z,7.55
2023-03-18T10:04:44.329Z,3.53
2023-03-18T10:07:19.090Z,8.88
2023-03-18T10:10:00.601Z,5.30
2023-03-18T10:12:32.528Z,5.88
2023-03-18T10:15:15.244Z,5.00
2023-03-18T10:17:44.229Z,5.85
2023-03-18T10:20:37.450Z,4.40
2023-03-18T10:23:29.393Z,4.53
2023-03-18T10:26:02.051Z,6.60
2023-03-18T10:28:54.414Z,3.90
2023-03-18T10:31:31.943Z,4.97
2023-03-18T10:34:02.337Z,8.05
2023-03-18T10:36:45.280Z,5.00
2023-03-18T10:39:16.389Z,4.18
2023-03-18T10:41:47.549Z,4.80
2023-03-18T10:44:20.026Z,5.80
2023-03-18T10:46:48.175Z,3.47
2023-03-18T10:49:26.547Z,4.18
2023-03-18T10:51:59.189Z,6.20
2023-03-18T10:54:36.924Z,6.60
2023-03-18T10:57:04.152Z,6.07
2023-03-18T10:59:31.048Z,8.80
2023-03-18T11:02:10.806Z,7.10
2023-03-18T11:04:47.178Z,7.40
2023-03-18T11:07:19.567Z,4.18
2023-03-18T11:09:46.686Z,4.75
2023-03-18T11:12:22.815Z,6.45
2023-03-18T11:14:51.373Z,5.95
2023-03-18T11:17:23.466Z,8.18
2023-03-18T11:20:01.088Z,6.05
2023-03-18T11:22:29.158Z,6.25
2023-03-18T11:25:17.226Z,6.50
2023-03-18T11:27:47.147Z,7.07
2023-03-18T11:30:34.106Z,6.60
2023-03-18T11:33:11.924Z,7.25
2023-03-18T11:35:57.634Z,9.35
2023-03-18T11:38:33.881Z,5.97
2023-03-18T11:41:08.842Z,7.28
2023-03-18T11:43:37.765Z,6.97
2023-03-18T11:46:10.580Z,9.77
2023-03-18T11:48:40.477Z,5.75
2023-03-18T11:51:27.290Z,4.85
2023-03-18T11:54:09.547Z,6.32
2023-03-18T11:56:39.230Z,5.60
2023-03-18T11:59:34.931Z,4.80
2023-03-18T12:02:26.849Z,6.07
2023-03-18T12:05:33.101Z,7.80
2023-03-18T12:08:18.500Z,5.60
2023-03-18T12:11:07.653Z,6.95
2023-03-18T12:13:39.753Z,6.93
2023-03-18T12:16:06.479Z,4.75
2023-03-18T12:18:45.201Z,6.68
2023-03-18T12:21:30.769Z,8.80
2023-03-18T12:24:04.554Z,6.82
2023-03-18T12:27:10.819Z,6.43
2023-03-18T12:30:04.727Z,10.45
2023-03-18T12:32:41.185Z,5.93
2023-03-18T12:35:50.857Z,8.18
2023-03-18T12:38:34.059Z,6.72
2023-03-18T12:41:09.365Z,9.23
2023-03-18T12:43:55.782Z,9.45
2023-03-18T12:46:34.225Z,9.82
2023-03-18T12:49:15.079Z,8.10
2023-03-18T12:52:01.980Z,8.25
2023-03-18T12:54:33.346Z,6.32
2023-03-18T12:57:11.610Z,6.25
2023-03-18T13:00:16.698Z,7.80
2023-03-18T13:02:55.681Z,8.27
2023-03-18T13:05:38.521Z,8.27
2023-03-18T13:08:21.631Z,9.00
2023-03-18T13:11:11.145Z,8.73
2023-03-18T13:13:44.320Z,5.72
2023-03-18T13:16:14.027Z,5.32
2023-03-18T13:18:50.417Z,5.80
2023-03-18T13:21:22.767Z,7.80
2023-03-18T13:24:23.099Z,10.75
2023-03-18T13:27:12.401Z,7.20
2023-03-18T13:29:54.045Z,6.03
2023-03-18T13:32:51.707Z,6.72
2023-03-18T13:35:50.745Z,6.30
2023-03-18T13:38:29.580Z,7.13
2023-03-18T13:41:15.148Z,5.55
2023-03-18T13:43:49.210Z,4.90
2023-03-18T13:46:27.210Z,5.07
2023-03-18T13:49:00.000Z,4.70
2023-03-18T13:51:29.626Z,6.45
2023-03-18T13:54:05.843Z,4.13
2023-03-18T13:56:42.525Z,4.78
2023-03-18T13:59:34.746Z,4.47
2023-03-18T14:02:26.397Z,3.85
2023-03-18T14:04:53.271Z,3.58
2023-03-18T14:07:21.914Z,5.57
2023-03-18T14:10:17.980Z,5.55
2023-03-18T14:12:49.714Z,4.95
2023-03-18T14:15:16.674Z,3.38
2023-03-18T14:17:58.551Z,6.22
2023-03-18T14:20:28.537Z,4.68
2023-03-18T14:23:16.501Z,4.78
2023-03-18T14:25:44.102Z,3.45
2023-03-18T14:28:14.848Z,3.67
2023-03-18T14:30:47.430Z,5.10
2023-03-18T14:33:20.266Z,5.40
2023-03-18T14:35:53.067Z,4.80
2023-03-18T14:38:31.589Z,4.60
2023-03-18T14:41:01.069Z,4.97
2023-03-18T14:43:42.334Z,5.95
2023-03-18T14:46:17.485Z,3.83
2023-03-18T14:48:45.170Z,4.32
2023-03-18T14:51:17.585Z,5.18
2023-03-18T14:53:52.767Z,3.63
2023-03-18T14:56:24.788Z,4.18
2023-03-18T14:58:56.437Z,3.95
2023-03-18T15:01:28.304Z,5.57
2023-03-18T15:03:56.055Z,4.80
2023-03-18T15:06:26.700Z,3.28
2023-03-18T15:09:04.759Z,3.17
2023-03-18T15:11:43.460Z,5.25
2023-03-18T15:14:19.385Z,3.33
2023-03-18T15:17:01.409Z,3.35
2023-03-18T15:19:28.685Z,3.03
2023-03-18T15:22:03.482Z,3.05
2023-03-18T15:24:30.616Z,3.67
2023-03-18T15:27:04.080Z,4.32
2023-03-18T15:29:37.272Z,3.95
2023-03-18T15:32:10.078Z,2.90
2023-03-18T15:34:41.479Z,4.45
2023-03-18T15:37:29.924Z,2.75
2023-03-18T15:39:58.690Z,2.30
2023-03-18T15:42:26.644Z,3.70
2023-03-18T15:45:00.809Z,4.47
2023-03-18T15:47:33.007Z,3.92
2023-03-18T15:50:09.601Z,3.70
2023-03-18T15:52:41.838Z,5.07
2023-03-18T15:55:25.800Z,6.88
2023-03-18T15:57:54.400Z,5.03
2023-03-18T16:00:21.368Z,4.50
2023-03-18T16:02:48.364Z,5.60
2023-03-18T16:05:19.373Z,4.38
2023-03-18T16:07:48.059Z,4.22
2023-03-18T16:10:20.458Z,6.55
2023-03-18T16:12:49.624Z,6.95
2023-03-18T16:15:24.779Z,4.63
2023-03-18T16:17:53.739Z,4.28
2023-03-18T16:20:23.224Z,4.32
2023-03-18T16:22:50.981Z,4.43
2023-03-18T16:25:18.473Z,3.15
2023-03-18T16:27:46.999Z,3.80
2023-03-18T16:30:26.112Z,6.25
2023-03-18T16:32:53.978Z,3.95
2023-03-18T16:35:27.008Z,3.63
2023-03-18T16:37:53.777Z,6.32
2023-03-18T16:40:27.192Z,4.95
2023-03-18T16:42:54.575Z,7.15
2023-03-18T16:45:25.240Z,5.10
2023-03-18T16:47:54.128Z,7.90
2023-03-18T16:50:23.850Z,6.15
2023-03-18T16:52:51.152Z,6.28
2023-03-18T16:55:19.484Z,7.00
2023-03-18T16:57:52.417Z,6.90
2023-03-18T17:00:34.500Z,7.90
2023-03-18T17:03:01.836Z,6.50
2023-03-18T17:05:29.092Z,5.93
2023-03-18T17:07:55.963Z,6.85
2023-03-18T17:10:26.069Z,6.88
2023-03-18T17:13:02.296Z,6.22
2023-03-18T17:15:31.858Z,7.15
2023-03-18T17:17:59.789Z,7.20
2023-03-18T17:20:29.521Z,6.78
2023-03-18T17:22:56.469Z,5.60
2023-03-18T17:25:27.158Z,6.80
2023-03-18T17:27:58.860Z,6.30
2023-03-18T17:30:52.316Z,6.00
2023-03-18T17:33:31.190Z,6.07
2023-03-18T17:36:00.550Z,6.63
2023-03-18T17:38:28.033Z,6.68
2023-03-18T17:40:55.564Z,7.25
2023-03-18T17:43:29.953Z,7.38
2023-03-18T17:45:58.104Z,6.55
2023-03-18T17:48:27.330Z,9.20
2023-03-18T17:50:59.955Z,8.35
2023-03-18T17:53:39.282Z,6.32
2023-03-18T17:56:08.497Z,7.43
2023-03-18T17:58:36.203Z,11.07
2023-03-18T18:01:18.205Z,7.38
2023-03-18T18:03:45.354Z,8.27
2023-03-18T18:06:34.824Z,8.38
2023-03-18T18:09:02.222Z,8.13
2023-03-18T18:11:38.874Z,8.73
2023-03-18T18:14:26.143Z,9.25
2023-03-18T18:16:54.131Z,6.35
2023-03-18T18:19:20.840Z,8.65
2023-03-18T18:21:49.101Z,7.22
2023-03-18T18:24:31.543Z,7.03
2023-03-18T18:26:58.435Z,8.45
2023-03-18T18:29:28.173Z,5.53
2023-03-18T18:31:54.953Z,5.78
2023-03-18T18:34:21.636Z,10.13
2023-03-18T18:36:49.785Z,6.28
2023-03-18T18:39:16.882Z,6.40
2023-03-18T18:41:44.139Z,9.00
2023-03-18T18:44:12.088Z,8.50
2023-03-18T18:46:39.374Z,6.50
2023-03-18T18:49:06.896Z,7.55
2023-03-18T18:51:33.603Z,8.30
2023-03-18T18:54:00.408Z,8.10
2023-03-18T18:56:36.471Z,7.63
2023-03-18T18:59:23.206Z,11.27
2023-03-18T19:01:54.033Z,12.40
2023-03-18T19:04:21.958Z,10.60
2023-03-18T19:06:50.899Z,9.30
2023-03-18T19:09:24.039Z,7.38
2023-03-18T19:11:52.066Z,10.02
2023-03-18T19:14:20.698Z,10.48
2023-03-18T19:16:48.887Z,11.23
2023-03-18T19:19:18.843Z,10.55
2023-03-18T19:21:45.897Z,11.75
2023-03-18T19:24:25.787Z,8.98
2023-03-18T19:26:58.477Z,11.00
2023-03-18T19:29:26.713Z,9.80
2023-03-18T19:31:54.476Z,10.65
2023-03-18T19:34:22.419Z,10.95
2023-03-18T19:36:52.907Z,9.73
2023-03-18T19:39:22.034Z,10.05
2023-03-18T19:41:49.141Z,14.00
2023-03-18T19:44:25.115Z,19.45
2023-03-18T19:46:54.683Z,17.20
2023-03-18T19:49:28.049Z,31.40
2023-03-18T19:51:55.411Z,18.83
2023-03-18T19:54:34.794Z,16.95
2023-03-18T19:57:04.316Z,15.35
2023-03-18T19:59:38.640Z,14.60
2023-03-18T20:02:25.024Z,13.07
2023-03-18T20:04:54.254Z,14.77
2023-03-18T20:07:23.622Z,10.20
2023-03-18T20:09:50.607Z,10.60
2023-03-18T20:12:29.507Z,15.20
2023-03-18T20:14:56.518Z,14.60
2023-03-18T20:17:37.059Z,15.70
2023-03-18T20:20:05.052Z,12.55
2023-03-18T20:22:38.040Z,12.68
2023-03-18T20:25:06.638Z,10.57
2023-03-18T20:27:33.348Z,11.35
2023-03-18T20:30:00.915Z,9.85
2023-03-18T20:32:27.667Z,10.65
2023-03-18T20:34:54.486Z,11.18
2023-03-18T20:37:36.146Z,13.10
2023-03-18T20:40:07.406Z,14.68
2023-03-18T20:42:34.199Z,17.55
2023-03-18T20:45:00.940Z,16.52
2023-03-18T20:47:27.651Z,18.77
2023-03-18T20:49:55.223Z,14.60
2023-03-18T20:52:29.933Z,13.10
2023-03-18T20:54:57.276Z,14.82
2023-03-18T20:57:25.539Z,14.27
2023-03-18T20:59:52.905Z,13.25
2023-03-18T21:02:31.027Z,14.82
2023-03-18T21:04:58.773Z,15.75
2023-03-18T21:07:26.831Z,12.25
2023-03-18T21:09:54.238Z,12.35
2023-03-18T21:12:22.094Z,12.63
2023-03-18T21:14:49.960Z,12.43
2023-03-18T21:17:25.911Z,12.25
2023-03-18T21:19:54.622Z,9.45
2023-03-18T21:22:27.545Z,10.25
2023-03-18T21:24:55.031Z,13.60
2023-03-18T21:27:24.033Z,14.40
2023-03-18T21:29:52.371Z,14.18
2023-03-18T21:32:28.246Z,14.80
2023-03-18T21:34:56.057Z,18.58
2023-03-18T21:37:26.388Z,14.55
2023-03-18T21:39:53.511Z,17.70
2023-03-18T21:42:26.178Z,16.33
2023-03-18T21:44:53.626Z,21.90
2023-03-18T21:47:22.580Z,18.17
2023-03-18T21:49:49.720Z,18.17
2023-03-18T21:52:35.001Z,16.40
2023-03-18T21:55:03.682Z,18.40
2023-03-18T21:57:30.474Z,15.65
2023-03-18T21:59:57.286Z,17.83
2023-03-18T22:02:31.436Z,17.05
2023-03-18T22:05:04.310Z,20.30
2023-03-18T22:07:31.979Z,17.17
2023-03-18T22:10:00.588Z,18.90
2023-03-18T22:12:31.755Z,25.05
2023-03-18T22:14:59.321Z,16.75
2023-03-18T22:17:31.693Z,18.77
2023-03-18T22:20:00.141Z,22.20
2023-03-18T22:22:30.531Z,23.73
2023-03-18T22:24:57.381Z,15.98
2023-03-18T22:27:26.870Z,12.02
2023-03-18T22:29:56.112Z,16.33
2023-03-18T22:32:44.631Z,15.43
2023-03-18T22:35:21.523Z,15.48
2023-03-18T22:37:49.220Z,18.42
2023-03-18T22:40:20.822Z,17.08
2023-03-18T22:42:49.445Z,13.60
2023-03-18T22:45:27.893Z,11.18
2023-03-18T22:48:03.363Z,11.43
2023-03-18T22:50:33.280Z,10.85
2023-03-18T22:53:08.613Z,10.80
2023-03-18T22:55:38.802Z,10.88
2023-03-18T22:58:06.000Z,12.15
2023-03-18T23:00:43.841Z,10.45
2023-03-18T23:03:34.901Z,17.35
2023-03-18T23:06:03.661Z,12.18
2023-03-18T23:08:32.194Z,10.38
2023-03-18T23:11:01.822Z,11.82
2023-03-18T23:13:46.724Z,12.43
2023-03-18T23:18:42.806Z,10.95
2023-03-18T23:21:16.011Z,14.00
2023-03-18T23:23:42.950Z,12.30
2023-03-18T23:26:09.642Z,12.73
2023-03-18T23:28:44.090Z,11.98
2023-03-18T23:31:12.671Z,13.98
2023-03-18T23:33:39.370Z,19.67
2023-03-18T23:36:06.497Z,13.82
2023-03-18T23:38:33.642Z,19.88
2023-03-18T23:41:00.380Z,17.95
2023-03-18T23:43:27.086Z,14.38
2023-03-18T23:45:53.805Z,20.13
2023-03-18T23:48:20.811Z,13.05
2023-03-18T23:50:47.551Z,12.57
2023-03-18T23:53:14.364Z,10.45
2023-03-18T23:55:41.442Z,11.73
2023-03-18T23:58:08.095Z,11.52
